Latest Weather Observations for Coolangatta

IDQ60801

Issued at 1:32 pm EST Thursday 1 September 2016 (issued every 30 minutes, with the page automatically refreshed every 10 minutes)

About weather observations | Map of weather stations | Latest weather observations for QLD | Other Formats
Station Details ID: 040717 Name: COOLANGATTA Lat: -28.17 Lon: 153.51 Height: 4.0 m
Data from the previous 72 hours. | See also: Recent months at Coolangatta
Date/Time
EST
Temp
°C
App
Temp
°C
Dew
Point
°C
Rel
Hum
%
Delta-T
°C
Wind Press
QNH
hPa
Press
MSL
hPa
Rain since
9am
mm
Dir  Spd
km/h
Gust
km/h
Spd
kts
Gust
kts
01/01:30pm 22.5 21.1 17.0 71 3.4 NNE 20 26 11 14 1017.3 1017.3 0.0
01/01:00pm 23.0 21.7 15.8 64 4.3 N 17 22 9 12 1017.7 1017.7 0.0
01/12:30pm 23.7 21.9 15.5 60 4.9 N 19 24 10 13 1018.2 1018.2 0.0
01/12:00pm 24.0 21.5 13.5 52 6.1 NNW 19 28 10 15 1018.8 1018.8 0.0
01/11:30am 24.1 21.9 14.5 55 5.7 NW 19 28 10 15 1019.3 1019.3 0.0
01/11:00am 23.0 21.1 14.3 58 5.1 NNW 17 24 9 13 1019.8 1019.8 0.0
01/10:30am 22.9 20.2 14.5 59 5.0 N 22 28 12 15 1020.1 1020.1 0.0
01/10:00am 24.1 21.7 14.5 55 5.7 NNW 20 28 11 15 1020.3 1020.3 0.0
01/09:30am 22.7 20.3 14.5 60 4.8 NW 20 28 11 15 1020.6 1020.6 0.0
01/09:00am 22.3 19.7 13.9 59 4.9 NW 20 30 11 16 1020.7 1020.7 0.0
01/08:30am 21.5 19.4 14.6 65 4.0 NW 19 26 10 14 1020.7 1020.7 0.0
01/08:00am 20.6 19.1 14.3 67 3.7 NW 15 24 8 13 1020.6 1020.6 0.0
01/07:30am 19.0 18.3 14.3 74 2.7 NW 11 15 6 8 1020.6 1020.6 0.0
01/07:00am 18.8 17.7 14.3 75 2.6 NW 13 19 7 10 1020.6 1020.6 0.0
01/06:30am 17.7 16.6 14.2 80 2.0 NW 13 17 7 9 1020.3 1020.3 0.0
01/06:00am 17.3 16.5 14.0 81 1.9 NW 11 15 6 8 1020.1 1020.1 0.0
01/05:30am 17.1 16.3 14.0 82 1.8 NW 11 19 6 10 1020.2 1020.2 0.0
01/05:00am 17.0 15.8 14.1 83 1.6 NW 13 15 7 8 1020.0 1020.0 0.0
01/04:30am 16.8 15.6 13.9 83 1.6 NW 13 19 7 10 1020.1 1020.1 0.0
01/04:00am 16.6 15.7 13.7 83 1.6 NW 11 13 6 7 1020.0 1020.0 0.0
01/03:30am 16.4 15.9 13.9 85 1.4 NW 9 13 5 7 1020.0 1020.0 0.0
01/03:00am 16.4 15.9 13.9 85 1.4 NW 9 13 5 7 1020.2 1020.2 0.0
01/02:30am 17.0 15.9 14.3 84 1.5 WNW 13 15 7 8 1020.4 1020.4 0.0
01/02:00am 16.9 16.2 14.4 85 1.4 NW 11 17 6 9 1020.7 1020.7 0.0
01/01:30am 16.8 16.1 14.3 85 1.4 NW 11 15 6 8 1021.0 1021.0 0.0
01/01:00am 17.0 16.0 14.5 85 1.4 WNW 13 15 7 8 1021.5 1021.5 0.0
01/12:30am 16.8 15.8 14.6 87 1.3 NW 13 17 7 9 1021.6 1021.6 0.0
01/12:00am 16.8 16.8 14.3 85 1.4 NW 7 9 4 5 1021.8 1021.8 0.0
 
Date/Time
EST
Temp
°C
App
Temp
°C
Dew
Point
°C
Rel
Hum
%
Delta-T
°C
Wind Press
QNH
hPa
Press
MSL
hPa
Rain since
9am
mm
Dir  Spd
km/h
Gust
km/h
Spd
kts
Gust
kts
31/11:30pm 17.1 16.0 14.4 84 1.5 NW 13 17 7 9 1022.1 1022.1 0.0
31/11:00pm 17.0 16.3 14.3 84 1.5 WNW 11 17 6 9 1022.5 1022.5 0.0
31/10:30pm 17.2 16.6 14.5 84 1.6 WNW 11 13 6 7 1022.3 1022.3 0.0
31/10:00pm 16.9 15.8 14.2 84 1.5 NW 13 15 7 8 1022.2 1022.2 0.0
31/09:30pm 17.2 17.0 13.5 79 2.1 WNW 7 9 4 5 1022.8 1022.8 0.0
31/09:00pm 18.1 17.7 14.0 77 2.3 WNW 9 11 5 6 1022.9 1022.9 0.0
31/08:30pm 18.8 18.2 14.5 76 2.5 WNW 11 17 6 9 1022.7 1022.7 0.0
31/08:00pm 19.9 17.0 15.1 74 2.8 N 24 30 13 16 1022.1 1022.1 0.0
31/07:30pm 19.9 17.8 15.1 74 2.8 N 20 28 11 15 1022.1 1022.1 0.0
31/07:00pm 20.0 16.8 15.4 75 2.7 N 26 35 14 19 1022.1 1022.1 0.0
31/06:30pm 19.8 16.9 15.2 75 2.7 N 24 32 13 17 1021.6 1021.6 0.0
31/06:00pm 19.9 16.8 14.5 71 3.1 N 24 30 13 16 1021.4 1021.4 0.0
31/05:30pm 20.1 16.5 14.2 69 3.4 N 26 35 14 19 1021.3 1021.3 0.0
31/05:00pm 20.2 16.2 14.1 68 3.5 N 28 33 15 18 1021.2 1021.2 0.0
31/04:30pm 20.5 16.5 14.2 67 3.7 N 28 37 15 20 1021.2 1021.2 0.0
31/04:00pm 20.7 17.2 14.4 67 3.7 N 26 32 14 17 1021.2 1021.2 0.0
31/03:30pm 21.1 16.7 13.0 60 4.6 N 28 35 15 19 1021.3 1021.3 0.0
31/03:00pm 21.1 17.3 13.5 62 4.4 N 26 32 14 17 1021.4 1021.4 0.0
31/02:30pm 21.6 17.8 13.5 60 4.7 N 26 35 14 19 1021.7 1021.7 0.0
31/02:00pm 21.6 17.5 12.7 57 5.0 N 26 33 14 18 1021.9 1021.9 0.0
31/01:30pm 21.6 17.2 13.0 58 4.9 N 28 35 15 19 1022.1 1022.1 0.0
31/01:00pm 22.4 18.8 13.2 56 5.3 N 24 32 13 17 1022.4 1022.4 0.0
31/12:30pm 22.4 18.4 11.8 51 6.0 N 24 32 13 17 1023.0 1023.0 0.0
31/12:00pm 22.6 18.4 12.5 53 5.7 N 26 32 14 17 1023.5 1023.5 0.0
31/11:30am 22.6 18.9 12.8 54 5.6 N 24 28 13 15 1024.2 1024.2 0.0
31/11:00am 21.8 18.6 11.8 53 5.6 NNW 20 28 11 15 1025.2 1025.2 0.0
31/10:30am 22.3 19.3 12.5 53 5.6 NNW 20 32 11 17 1025.3 1025.3 0.0
31/10:00am 22.0 19.3 12.8 56 5.2 NW 19 28 10 15 1025.9 1025.9 0.0
31/09:30am 20.7 18.5 12.1 58 4.8 NW 15 24 8 13 1026.3 1026.3 0.0
31/09:00am 20.4 17.4 11.9 58 4.7 NW 19 30 10 16 1026.4 1026.4 0.0
31/08:30am 20.3 18.2 13.7 66 3.8 NW 17 24 9 13 1026.5 1026.5 0.0
31/08:00am 18.4 18.1 14.5 78 2.2 WNW 9 13 5 7 1026.4 1026.4 0.0
31/07:30am 15.6 16.2 14.3 92 0.7 WSW 4 7 2 4 1026.2 1026.2 0.0
31/07:00am 14.0 14.3 13.5 97 0.3 WSW 4 6 2 3 1026.1 1026.1 0.0
31/06:30am 12.5 12.0 12.0 97 0.3 SW 6 7 3 4 1025.5 1025.5 0.0
31/06:00am 11.3 11.5 10.5 95 0.4 CALM 0 0 0 0 1025.1 1025.1 0.0
31/05:30am 11.3 11.5 10.5 95 0.4 CALM 0 0 0 0 1025.0 1025.0 0.0
31/05:00am 11.3 11.5 10.4 94 0.5 CALM 0 0 0 0 1024.7 1024.7 0.0
31/04:30am 12.0 11.2 11.2 95 0.4 WSW 6 7 3 4 1025.0 1025.0 0.0
31/04:00am 11.3 11.5 10.4 94 0.5 CALM 0 0 0 0 1024.5 1024.5 0.0
31/03:30am 11.8 11.3 10.9 94 0.5 WSW 4 7 2 4 1024.6 1024.6 0.0
31/03:00am 12.6 12.1 12.0 96 0.3 WSW 6 9 3 5 1024.8 1024.8 0.0
31/02:30am 11.6 10.7 10.5 93 0.6 WSW 6 7 3 4 1025.0 1025.0 0.0
31/02:00am 12.2 11.8 11.1 93 0.6 SW 4 7 2 4 1025.6 1025.6 0.0
31/01:30am 12.5 11.9 11.6 94 0.5 SW 6 7 3 4 1025.8 1025.8 0.0
31/01:00am 12.6 12.2 11.2 91 0.7 SW 4 7 2 4 1026.0 1026.0 0.0
31/12:30am 13.0 12.4 11.6 91 0.7 WSW 6 7 3 4 1026.4 1026.4 0.0
31/12:00am 12.9 13.3 11.3 90 0.8 CALM 0 6 0 3 1026.5 1026.5 0.0
 
Date/Time
EST
Temp
°C
App
Temp
°C
Dew
Point
°C
Rel
Hum
%
Delta-T
°C
Wind Press
QNH
hPa
Press
MSL
hPa
Rain since
9am
mm
Dir  Spd
km/h
Gust
km/h
Spd
kts
Gust
kts
30/11:30pm 13.1 12.9 11.7 91 0.7 WSW 4 7 2 4 1026.5 1026.5 0.0
30/11:00pm 12.9 12.9 11.1 89 0.9 SW 2 7 1 4 1026.8 1026.8 0.0
30/10:30pm 13.4 13.5 11.5 88 1.0 SW 2 7 1 4 1027.0 1027.0 0.0
30/10:00pm 13.6 13.0 11.8 89 1.0 WSW 6 9 3 5 1027.4 1027.4 0.0
30/09:30pm 13.8 12.7 11.8 88 1.1 WSW 9 11 5 6 1027.5 1027.5 0.0
30/09:00pm 13.7 12.9 11.0 84 1.4 WSW 6 7 3 4 1027.5 1027.5 0.0
30/08:30pm 14.4 13.9 11.9 85 1.3 WSW 6 7 3 4 1027.6 1027.6 0.0
30/08:00pm 14.4 13.0 12.3 87 1.1 WSW 11 15 6 8 1027.5 1027.5 0.0
30/07:30pm 14.6 13.5 12.1 85 1.4 WSW 9 11 5 6 1027.2 1027.2 0.0
30/07:00pm 15.5 14.8 11.9 79 1.9 WSW 7 9 4 5 1027.0 1027.0 0.0
30/06:30pm 17.5 16.0 10.4 63 3.8 NNE 9 13 5 7 1026.8 1026.8 0.0
30/06:00pm 18.9 17.0 10.5 58 4.5 NE 11 15 6 8 1026.4 1026.4 0.0
30/05:30pm 19.1 17.0 9.9 55 4.9 NNE 11 15 6 8 1026.3 1026.3 0.0
30/05:00pm 19.5 17.1 10.2 55 5.0 NE 13 15 7 8 1026.4 1026.4 0.0
30/04:30pm 20.3 18.0 10.4 53 5.4 ENE 13 17 7 9 1026.4 1026.4 0.0
30/04:00pm 20.6 18.2 10.1 51 5.6 ENE 13 17 7 9 1026.5 1026.5 0.0
30/03:30pm 20.6 18.2 10.1 51 5.7 NE 13 19 7 10 1026.4 1026.4 0.0
30/03:00pm 20.9 18.3 10.7 52 5.5 NE 15 24 8 13 1026.5 1026.5 0.0
30/02:30pm 21.4 19.0 11.4 53 5.5 NE 15 20 8 11 1026.7 1026.7 0.0
30/02:00pm 21.4 18.7 11.7 54 5.4 ENE 17 20 9 11 1026.8 1026.8 0.0
30/01:30pm 21.3 18.7 10.8 51 5.8 NE 15 26 8 14 1026.9 1026.9 0.0
30/01:00pm 21.7 18.7 10.5 49 6.1 ENE 17 22 9 12 1027.2 1027.2 0.0
30/12:30pm 22.0 18.8 11.4 51 5.9 NE 19 24 10 13 1027.6 1027.6 0.0
30/12:00pm 22.0 19.5 11.1 50 6.0 NE 15 20 8 11 1028.0 1028.0 0.0
30/11:30am 22.0 19.1 11.1 50 6.0 ENE 17 26 9 14 1028.3 1028.3 0.0
30/11:00am 21.8 18.7 10.3 48 6.2 ENE 17 22 9 12 1028.9 1028.9 0.0
30/10:30am 21.9 19.1 11.3 51 5.9 ENE 17 24 9 13 1029.2 1029.2 0.0
30/10:00am 21.4 18.4 10.6 50 5.9 ENE 17 22 9 12 1029.4 1029.4 0.0
30/09:30am 21.3 19.0 11.9 55 5.3 ESE 15 20 8 11 1029.2 1029.2 0.0
30/09:00am 20.4 18.8 12.9 62 4.2 SE 13 17 7 9 1028.9 1028.9 0.0
30/08:30am 19.3 18.4 13.7 70 3.2 SSE 11 13 6 7 1029.2 1029.2 0.0
30/08:00am 16.9 18.3 14.4 85 1.4 CALM 0 0 0 0 1029.0 1029.0 0.0
30/07:30am 15.3 15.3 13.5 89 1.0 SSW 6 9 3 5 1028.5 1028.5 0.0
30/07:00am 13.5 13.2 12.6 94 0.5 SSW 6 7 3 4 1027.7 1027.7 0.0
30/06:30am 12.9 12.8 12.0 94 0.5 SW 4 7 2 4 1027.3 1027.3 0.0
30/06:00am 13.1 13.8 12.2 94 0.5 CALM 0 6 0 3 1026.7 1026.7 0.0
30/05:30am 13.3 13.7 12.4 94 0.5 S 2 6 1 3 1026.3 1026.3 0.0
30/05:00am 13.2 13.5 12.3 94 0.5 WSW 2 7 1 4 1025.9 1025.9 0.0
30/04:30am 13.5 14.2 12.2 92 0.7 CALM 0 0 0 0 1025.5 1025.5 0.0
30/04:00am 14.1 13.8 12.7 91 0.8 SSE 6 7 3 4 1025.4 1025.4 0.0
30/03:30am 14.8 14.6 13.0 89 1.0 SW 6 6 3 3 1025.4 1025.4 0.0
30/03:00am 14.9 14.8 13.3 90 0.9 SSW 6 7 3 4 1025.4 1025.4 0.0
30/02:30am 14.7 14.9 12.9 89 1.0 SW 4 7 2 4 1025.1 1025.1 0.0
30/02:00am 15.0 16.0 13.2 89 1.0 CALM 0 0 0 0 1025.3 1025.3 0.0
30/01:30am 15.0 14.9 13.4 90 0.9 SW 6 11 3 6 1025.5 1025.5 0.0
30/01:00am 15.5 16.6 13.5 88 1.1 CALM 0 0 0 0 1025.9 1025.9 0.0
30/12:30am 15.3 14.7 13.5 89 1.0 WSW 9 11 5 6 1026.3 1026.3 0.0
30/12:00am 15.2 14.9 13.2 88 1.1 WSW 7 11 4 6 1026.4 1026.4 0.0
 
Date/Time
EST
Temp
°C
App
Temp
°C
Dew
Point
°C
Rel
Hum
%
Delta-T
°C
Wind Press
QNH
hPa
Press
MSL
hPa
Rain since
9am
mm
Dir  Spd
km/h
Gust
km/h
Spd
kts
Gust
kts
29/11:30pm 15.6 15.6 13.6 88 1.1 SW 6 9 3 5 1026.7 1026.7 0.0
29/11:00pm 15.6 15.4 13.6 88 1.1 WSW 7 11 4 6 1026.6 1026.6 0.0
29/10:30pm 15.6 15.4 13.6 88 1.1 WSW 7 11 4 6 1026.6 1026.6 0.0
29/10:00pm 16.0 15.5 13.8 87 1.2 WSW 9 13 5 7 1026.8 1026.8 0.0
29/09:30pm 15.9 15.7 13.7 87 1.2 W 7 9 4 5 1026.8 1026.8 0.0
29/09:00pm 18.7 17.3 12.2 66 3.6 NNE 11 17 6 9 1026.7 1026.7 0.0
29/08:30pm 19.0 17.2 12.0 64 3.9 NNE 13 15 7 8 1026.7 1026.7 0.0
29/08:00pm 19.3 17.6 12.3 64 3.9 NNE 13 15 7 8 1026.5 1026.5 0.0
29/07:30pm 19.0 17.7 12.5 66 3.6 NNE 11 15 6 8 1026.3 1026.3 0.0
29/07:00pm 18.6 17.3 12.4 67 3.4 NNE 11 17 6 9 1026.3 1026.3 0.0
29/06:30pm 19.3 17.6 12.6 65 3.8 NE 13 17 7 9 1026.0 1026.0 0.0
29/06:00pm 19.3 18.0 12.6 65 3.7 NNE 11 17 6 9 1025.6 1025.6 0.0
29/05:30pm 19.7 18.5 12.9 65 3.8 NE 11 17 6 9 1025.2 1025.2 0.0
29/05:00pm 19.7 18.9 14.1 70 3.2 ENE 11 15 6 8 1025.1 1025.1 0.0
29/04:30pm 20.0 18.7 13.7 67 3.6 NE 13 17 7 9 1024.9 1024.9 0.0
29/04:00pm 19.8 18.0 13.3 66 3.7 NE 15 20 8 11 1024.7 1024.7 0.0
29/03:30pm 20.8 19.1 13.5 63 4.2 NE 15 20 8 11 1024.6 1024.6 0.0
29/03:00pm 20.9 18.8 13.6 63 4.2 ENE 17 20 9 11 1024.6 1024.6 0.0
29/02:30pm 21.0 18.5 13.4 62 4.4 ENE 19 22 10 12 1024.5 1024.5 0.0
29/02:00pm 21.6 19.0 13.2 59 4.8 ENE 19 22 10 12 1024.3 1024.3 0.0

Other Formats:

Comma delimited format used in spreadsheet applications
http://www.bom.gov.au/fwo/IDQ60801/IDQ60801.94592.axf

JavaScript Object Notation format (JSON) in row-major order
http://www.bom.gov.au/fwo/IDQ60801/IDQ60801.94592.json